createdAt,value
2023-04-27T00:00:39.903Z,82.90
2023-04-27T00:03:08.183Z,82.50
2023-04-27T00:05:37.009Z,82.60
2023-04-27T00:08:05.307Z,82.50
2023-04-27T00:10:33.414Z,82.30
2023-04-27T00:13:02.460Z,82.20
2023-04-27T00:15:30.730Z,82.10
2023-04-27T00:18:01.490Z,82.20
2023-04-27T00:20:29.585Z,82.30
2023-04-27T00:22:57.659Z,82.20
2023-04-27T00:25:26.041Z,82.10
2023-04-27T00:27:54.072Z,82.10
2023-04-27T00:30:22.110Z,81.70
2023-04-27T00:32:50.247Z,82.00
2023-04-27T00:35:19.843Z,81.90
2023-04-27T00:37:47.860Z,81.50
2023-04-27T00:40:15.911Z,82.10
2023-04-27T00:42:43.970Z,82.50
2023-04-27T00:45:13.657Z,82.20
2023-04-27T00:47:42.553Z,82.50
2023-04-27T00:50:12.109Z,83.70
2023-04-27T00:52:42.489Z,84.70
2023-04-27T00:55:10.715Z,84.40
2023-04-27T00:57:41.405Z,84.30
2023-04-27T01:00:11.652Z,84.60
2023-04-27T01:02:40.865Z,84.80
2023-04-27T01:05:09.879Z,85.50
2023-04-27T01:07:39.079Z,85.10
2023-04-27T01:10:09.863Z,84.80
2023-04-27T01:12:38.110Z,84.70
2023-04-27T01:15:08.187Z,86.10
2023-04-27T01:17:36.377Z,86.80
2023-04-27T01:20:10.629Z,85.50
2023-04-27T01:22:38.943Z,85.70
2023-04-27T01:25:09.628Z,87.00
2023-04-27T01:27:37.659Z,87.10
2023-04-27T01:30:06.831Z,86.00
2023-04-27T01:32:34.882Z,86.10
2023-04-27T01:35:02.992Z,87.70
2023-04-27T01:37:31.965Z,88.10
2023-04-27T01:40:00.154Z,87.90
2023-04-27T01:42:31.299Z,88.30
2023-04-27T01:45:00.470Z,88.40
2023-04-27T01:47:28.702Z,88.60
2023-04-27T01:49:56.869Z,88.30
2023-04-27T01:52:24.905Z,87.60
2023-04-27T01:54:52.972Z,86.60
2023-04-27T01:57:22.757Z,86.00
2023-04-27T01:59:52.178Z,85.90
2023-04-27T02:02:20.212Z,85.20
2023-04-27T02:04:48.368Z,84.80
2023-04-27T02:07:16.407Z,84.80
2023-04-27T02:09:44.916Z,84.70
2023-04-27T02:12:15.277Z,85.30
2023-04-27T02:14:43.631Z,85.10
2023-04-27T02:17:12.978Z,85.40
2023-04-27T02:19:41.188Z,85.10
2023-04-27T02:22:09.196Z,84.70
2023-04-27T02:24:37.505Z,84.70
2023-04-27T02:27:06.246Z,85.30
2023-04-27T02:29:38.718Z,87.10
2023-04-27T02:32:07.389Z,87.00
2023-04-27T02:34:36.932Z,87.10
2023-04-27T02:37:04.980Z,87.40
2023-04-27T02:39:33.027Z,87.90
2023-04-27T02:42:01.447Z,88.20
2023-04-27T02:44:29.527Z,88.20
2023-04-27T02:46:58.936Z,88.30
2023-04-27T02:49:27.054Z,88.00
2023-04-27T02:51:57.486Z,88.10
2023-04-27T02:54:25.557Z,88.10
2023-04-27T02:56:53.633Z,88.10
2023-04-27T02:59:21.765Z,87.90
2023-04-27T03:01:49.790Z,88.30
2023-04-27T03:04:18.083Z,88.30
2023-04-27T03:06:46.360Z,88.60
2023-04-27T03:09:16.020Z,89.00
2023-04-27T03:11:44.469Z,88.90
2023-04-27T03:14:13.292Z,88.80
2023-04-27T03:16:41.408Z,88.60
2023-04-27T03:19:09.442Z,89.50
2023-04-27T03:21:37.481Z,89.20
2023-04-27T03:24:06.237Z,89.00
2023-04-27T03:26:35.740Z,88.40
2023-04-27T03:29:05.382Z,87.80
2023-04-27T03:31:33.425Z,87.50
2023-04-27T03:34:01.625Z,86.80
2023-04-27T03:36:29.633Z,86.70
2023-04-27T03:38:57.616Z,86.50
2023-04-27T03:41:26.050Z,85.20
2023-04-27T03:43:55.366Z,85.00
2023-04-27T03:46:23.466Z,84.90
2023-04-27T03:48:51.719Z,85.90
2023-04-27T03:51:19.750Z,86.00
2023-04-27T03:53:48.347Z,85.10
2023-04-27T03:56:16.394Z,86.40
2023-04-27T03:58:44.435Z,86.40
2023-04-27T04:01:21.905Z,86.50
2023-04-27T04:03:51.710Z,86.00
2023-04-27T04:06:19.982Z,86.10
2023-04-27T04:08:48.022Z,84.70
2023-04-27T04:11:16.119Z,85.70
2023-04-27T04:13:44.477Z,84.70
2023-04-27T04:16:13.627Z,85.90
2023-04-27T04:18:43.123Z,85.80
2023-04-27T04:21:12.383Z,85.30
2023-04-27T04:23:41.639Z,85.60
2023-04-27T04:26:09.845Z,85.50
2023-04-27T04:28:38.191Z,84.00
2023-04-27T04:31:06.571Z,85.00
2023-04-27T04:33:34.630Z,84.10
2023-04-27T04:36:06.629Z,85.20
2023-04-27T04:38:35.355Z,85.60
2023-04-27T04:41:03.416Z,85.80
2023-04-27T04:43:34.285Z,85.70
2023-04-27T04:46:06.295Z,85.30
2023-04-27T04:48:35.516Z,85.30
2023-04-27T04:51:07.070Z,86.30
2023-04-27T04:53:35.863Z,86.60
2023-04-27T04:56:10.932Z,86.50
2023-04-27T04:58:39.105Z,86.60
2023-04-27T05:01:07.397Z,86.00
2023-04-27T05:03:35.580Z,86.30
2023-04-27T05:06:03.763Z,86.20
2023-04-27T05:08:33.161Z,86.10
2023-04-27T05:11:01.333Z,86.00
2023-04-27T05:13:29.614Z,86.50
2023-04-27T05:15:57.698Z,86.70
2023-04-27T05:18:25.761Z,85.90
2023-04-27T05:20:53.766Z,85.60
2023-04-27T05:23:21.763Z,85.50
2023-04-27T05:25:51.671Z,85.60
2023-04-27T05:28:19.770Z,85.80
2023-04-27T05:30:47.815Z,84.10
2023-04-27T05:33:16.069Z,84.20
2023-04-27T05:35:44.523Z,84.00
2023-04-27T05:38:15.084Z,83.90
2023-04-27T05:40:43.083Z,84.40
2023-04-27T05:43:12.534Z,84.00
2023-04-27T05:45:41.676Z,83.90
2023-04-27T05:48:09.715Z,83.60
2023-04-27T05:50:37.728Z,83.50
2023-04-27T05:53:06.115Z,83.30
2023-04-27T05:55:34.359Z,83.10
2023-04-27T05:58:08.737Z,83.00
2023-04-27T06:00:38.819Z,83.00
2023-04-27T06:03:07.207Z,83.00
2023-04-27T06:05:35.640Z,82.70
2023-04-27T06:08:03.716Z,82.70
2023-04-27T06:10:31.788Z,82.40
2023-04-27T06:12:59.916Z,82.50
2023-04-27T06:15:27.955Z,82.50
2023-04-27T06:17:57.388Z,82.80
2023-04-27T06:20:25.852Z,82.30
2023-04-27T06:22:53.829Z,82.20
2023-04-27T06:25:23.211Z,82.20
2023-04-27T06:27:52.405Z,81.90
2023-04-27T06:30:20.540Z,82.80
2023-04-27T06:32:48.721Z,82.20
2023-04-27T06:35:18.391Z,82.20
2023-04-27T06:37:47.433Z,82.60
2023-04-27T06:40:15.759Z,83.00
2023-04-27T06:42:44.051Z,82.70
2023-04-27T06:45:12.997Z,82.50
2023-04-27T06:47:41.229Z,83.00
2023-04-27T06:50:09.884Z,83.10
2023-04-27T06:52:39.251Z,82.60
2023-04-27T06:55:08.189Z,82.50
2023-04-27T06:57:36.282Z,82.40
2023-04-27T07:00:05.051Z,82.30
2023-04-27T07:02:33.196Z,82.50
2023-04-27T07:05:01.357Z,82.90
2023-04-27T07:07:29.430Z,82.50
2023-04-27T07:09:59.022Z,82.90
2023-04-27T07:12:27.003Z,82.10
2023-04-27T07:14:55.553Z,82.20
2023-04-27T07:17:23.551Z,82.40
2023-04-27T07:19:51.588Z,82.80
2023-04-27T07:22:20.058Z,82.70
2023-04-27T07:24:48.067Z,83.10
2023-04-27T07:27:17.549Z,83.10
2023-04-27T07:29:45.875Z,83.20
2023-04-27T07:32:14.895Z,83.20
2023-04-27T07:34:52.721Z,82.60
2023-04-27T07:37:21.264Z,82.40
2023-04-27T07:39:50.749Z,82.20
2023-04-27T07:42:22.177Z,82.20
2023-04-27T07:44:50.380Z,82.70
2023-04-27T07:47:18.652Z,82.30
2023-04-27T07:49:47.174Z,82.70
2023-04-27T07:52:15.809Z,82.00
2023-04-27T07:54:43.883Z,82.00
2023-04-27T07:57:12.578Z,81.90
2023-04-27T07:59:41.990Z,81.70
2023-04-27T08:02:18.429Z,81.40
2023-04-27T08:04:48.918Z,81.00
2023-04-27T08:07:18.391Z,80.70
2023-04-27T08:09:47.142Z,81.20
2023-04-27T08:12:15.174Z,80.50
2023-04-27T08:14:44.507Z,81.90
2023-04-27T08:17:12.597Z,81.00
2023-04-27T08:19:42.152Z,80.90
2023-04-27T08:22:10.238Z,80.70
2023-04-27T08:24:38.255Z,80.60
2023-04-27T08:27:07.036Z,80.60
2023-04-27T08:29:35.216Z,80.10
2023-04-27T08:32:05.932Z,80.00
2023-04-27T08:34:34.021Z,80.10
2023-04-27T08:37:04.259Z,81.00
2023-04-27T08:39:32.305Z,80.60
2023-04-27T08:42:00.281Z,80.60
2023-04-27T08:44:28.397Z,80.40
2023-04-27T08:46:56.403Z,80.80
2023-04-27T08:49:25.762Z,81.10
2023-04-27T08:51:53.788Z,80.90
2023-04-27T08:54:22.481Z,81.10
2023-04-27T08:56:50.508Z,81.20
2023-04-27T08:59:18.518Z,81.50
2023-04-27T09:01:48.487Z,81.20
2023-04-27T09:04:18.599Z,81.60
2023-04-27T09:06:49.642Z,81.60
2023-04-27T09:09:25.021Z,81.40
2023-04-27T09:11:53.047Z,81.00
2023-04-27T09:14:22.869Z,80.90
2023-04-27T09:16:57.377Z,80.70
2023-04-27T09:19:26.398Z,81.10
2023-04-27T09:22:09.082Z,80.90
2023-04-27T09:24:37.655Z,80.90
2023-04-27T09:27:08.801Z,80.70
2023-04-27T09:29:38.391Z,81.00
2023-04-27T09:32:17.563Z,81.30
2023-04-27T09:34:46.041Z,81.20
2023-04-27T09:37:15.773Z,81.30
2023-04-27T09:39:43.975Z,81.00
2023-04-27T09:42:13.446Z,80.50
2023-04-27T09:44:41.490Z,80.50
2023-04-27T09:47:10.358Z,80.80
2023-04-27T09:49:38.832Z,80.50
2023-04-27T09:52:06.942Z,80.20
2023-04-27T09:54:37.548Z,80.40
2023-04-27T09:57:18.765Z,80.70
2023-04-27T10:00:07.978Z,80.70
2023-04-27T10:02:53.363Z,80.90
2023-04-27T10:05:43.642Z,80.50
2023-04-27T10:08:12.366Z,80.40
2023-04-27T10:10:49.042Z,80.40
2023-04-27T10:13:26.133Z,80.50
2023-04-27T10:15:54.746Z,80.80
2023-04-27T10:18:31.515Z,80.80
2023-04-27T10:21:11.974Z,81.00
2023-04-27T10:23:48.285Z,80.70
2023-04-27T10:26:24.886Z,80.80
2023-04-27T10:29:05.435Z,80.90
2023-04-27T10:31:33.705Z,81.10
2023-04-27T10:34:12.533Z,81.20
2023-04-27T10:36:41.223Z,81.60
2023-04-27T10:39:17.424Z,80.90
2023-04-27T10:41:54.448Z,80.80
2023-04-27T10:44:29.397Z,80.70
2023-04-27T10:46:59.718Z,80.90
2023-04-27T10:49:29.230Z,81.00
2023-04-27T10:52:00.772Z,80.70
2023-04-27T10:54:29.734Z,80.20
2023-04-27T10:57:06.365Z,80.20
2023-04-27T10:59:35.737Z,80.10
2023-04-27T11:02:04.106Z,80.00
2023-04-27T11:04:40.151Z,79.80
2023-04-27T11:07:09.288Z,79.70
2023-04-27T11:09:38.313Z,79.80
2023-04-27T11:12:12.885Z,80.40
2023-04-27T11:14:40.956Z,80.30
2023-04-27T11:17:09.267Z,80.80
2023-04-27T11:19:46.842Z,81.10
2023-04-27T11:22:16.430Z,81.20
2023-04-27T11:24:49.220Z,81.40
2023-04-27T11:27:19.261Z,81.20
2023-04-27T11:29:47.305Z,80.90
2023-04-27T11:32:21.404Z,80.50
2023-04-27T11:34:54.026Z,80.30
2023-04-27T11:37:25.351Z,80.20
2023-04-27T11:39:54.580Z,80.30
2023-04-27T11:42:25.227Z,80.30
2023-04-27T11:44:55.453Z,80.00
2023-04-27T11:47:25.060Z,80.10
2023-04-27T11:49:55.685Z,79.70
2023-04-27T11:52:24.278Z,80.10
2023-04-27T11:54:56.487Z,80.10
2023-04-27T11:57:27.856Z,79.90
2023-04-27T11:59:57.569Z,79.90
2023-04-27T12:02:25.765Z,79.90
2023-04-27T12:04:54.325Z,79.90
2023-04-27T12:07:22.482Z,79.80
2023-04-27T12:09:50.755Z,79.90
2023-04-27T12:12:19.174Z,80.30
2023-04-27T12:14:48.576Z,80.10
2023-04-27T12:17:16.627Z,80.20
2023-04-27T12:19:44.852Z,80.40
2023-04-27T12:22:13.519Z,80.70
2023-04-27T12:24:41.524Z,80.20
2023-04-27T12:27:09.677Z,80.20
2023-04-27T12:29:38.947Z,80.10
2023-04-27T12:32:08.489Z,80.30
2023-04-27T12:34:36.672Z,80.30
2023-04-27T12:37:04.724Z,80.60
2023-04-27T12:39:32.830Z,80.30
2023-04-27T12:42:01.797Z,79.90
2023-04-27T12:44:30.214Z,80.20
2023-04-27T12:46:58.233Z,80.20
2023-04-27T12:49:27.834Z,80.30
2023-04-27T12:51:57.173Z,79.70
2023-04-27T12:54:25.213Z,79.50
2023-04-27T12:56:53.266Z,79.50
2023-04-27T12:59:21.296Z,79.30
2023-04-27T13:01:49.417Z,79.00
2023-04-27T13:04:20.578Z,79.20
2023-04-27T13:06:50.814Z,79.90
2023-04-27T13:09:18.835Z,79.60
2023-04-27T13:11:46.837Z,79.90
2023-04-27T13:14:15.038Z,79.30
2023-04-27T13:16:43.606Z,79.30
2023-04-27T13:19:11.699Z,78.70
2023-04-27T13:21:39.814Z,79.10
2023-04-27T13:24:09.621Z,79.40
2023-04-27T13:26:37.636Z,79.60
2023-04-27T13:29:05.875Z,79.00
2023-04-27T13:31:34.057Z,78.80
2023-04-27T13:34:04.285Z,78.70
2023-04-27T13:36:32.304Z,79.00
2023-04-27T13:39:00.386Z,79.00
2023-04-27T13:41:29.865Z,78.90
2023-04-27T13:43:57.936Z,79.20
2023-04-27T13:46:26.753Z,78.90
2023-04-27T13:48:55.006Z,79.00
2023-04-27T13:51:23.018Z,78.60
2023-04-27T13:53:51.021Z,79.00
2023-04-27T13:56:19.013Z,78.70
2023-04-27T13:58:48.338Z,78.70
2023-04-27T14:01:17.028Z,78.80
2023-04-27T14:03:45.230Z,78.90
2023-04-27T14:06:13.379Z,78.70
2023-04-27T14:08:41.592Z,78.90
2023-04-27T14:11:09.622Z,79.20
2023-04-27T14:13:37.722Z,79.30
2023-04-27T14:16:08.508Z,79.50
2023-04-27T14:18:36.703Z,79.50
2023-04-27T14:21:05.663Z,79.70
2023-04-27T14:23:33.692Z,79.40
2023-04-27T14:26:01.717Z,79.50
2023-04-27T14:28:29.761Z,79.30
2023-04-27T14:30:57.766Z,79.60
2023-04-27T14:33:27.141Z,79.90
2023-04-27T14:35:56.060Z,79.40
2023-04-27T14:38:24.068Z,79.50
2023-04-27T14:40:52.126Z,79.40
2023-04-27T14:43:20.123Z,79.30
2023-04-27T14:45:52.608Z,79.30
2023-04-27T14:48:23.760Z,79.60
2023-04-27T14:50:53.770Z,79.40
2023-04-27T14:53:21.980Z,79.50
2023-04-27T14:55:49.998Z,79.30
2023-04-27T14:58:18.010Z,79.50
2023-04-27T15:00:46.022Z,79.50
2023-04-27T15:03:14.169Z,79.30
2023-04-27T15:05:42.229Z,79.50
2023-04-27T15:08:11.614Z,79.20
2023-04-27T15:10:39.666Z,80.10
2023-04-27T15:13:07.708Z,79.60
2023-04-27T15:15:36.079Z,79.70
2023-04-27T15:18:04.180Z,79.90
2023-04-27T15:20:32.473Z,80.00
2023-04-27T15:23:00.504Z,80.00
2023-04-27T15:25:29.858Z,79.90
2023-04-27T15:27:58.377Z,81.30
2023-04-27T15:30:26.563Z,80.60
2023-04-27T15:32:54.764Z,80.70
2023-04-27T15:35:22.855Z,80.50
2023-04-27T15:37:54.381Z,80.50
2023-04-27T15:40:24.474Z,80.60
2023-04-27T15:42:53.926Z,80.60
2023-04-27T15:45:22.172Z,80.80
2023-04-27T15:47:50.462Z,81.10
2023-04-27T15:50:18.637Z,81.10
2023-04-27T15:52:46.756Z,81.20
2023-04-27T15:55:15.016Z,81.40
2023-04-27T15:57:43.107Z,81.40
2023-04-27T16:00:16.190Z,81.40
2023-04-27T16:02:44.494Z,81.60
2023-04-27T16:05:12.662Z,81.30
2023-04-27T16:07:41.134Z,81.10
2023-04-27T16:10:11.778Z,81.60
2023-04-27T16:12:41.045Z,81.80
2023-04-27T16:15:11.733Z,81.70
2023-04-27T16:17:42.572Z,81.60
2023-04-27T16:20:12.260Z,81.40
2023-04-27T16:22:41.890Z,81.20
2023-04-27T16:25:11.829Z,81.50
2023-04-27T16:27:41.475Z,81.90
2023-04-27T16:30:10.363Z,81.80
2023-04-27T16:32:39.045Z,81.60
2023-04-27T16:35:09.506Z,81.50
2023-04-27T16:37:37.791Z,81.50
2023-04-27T16:40:08.206Z,81.60
2023-04-27T16:42:36.497Z,81.70
2023-04-27T16:45:04.878Z,81.40
2023-04-27T16:47:33.661Z,81.50
2023-04-27T16:50:01.727Z,81.70
2023-04-27T16:52:31.525Z,81.70
2023-04-27T16:54:59.538Z,82.10
2023-04-27T16:57:27.564Z,82.60
2023-04-27T16:59:56.252Z,82.60
2023-04-27T17:02:25.646Z,82.80
2023-04-27T17:04:55.332Z,82.70
2023-04-27T17:07:23.599Z,82.60
2023-04-27T17:09:53.789Z,83.00
2023-04-27T17:12:21.834Z,83.20
2023-04-27T17:14:50.143Z,82.90
2023-04-27T17:17:18.142Z,82.90
2023-04-27T17:19:46.658Z,82.90
2023-04-27T17:22:14.885Z,83.20
2023-04-27T17:24:42.931Z,83.50
2023-04-27T17:27:12.509Z,82.60
2023-04-27T17:29:40.603Z,82.60
2023-04-27T17:32:09.241Z,83.20
2023-04-27T17:34:37.290Z,83.60
2023-04-27T17:37:05.346Z,83.30
2023-04-27T17:39:34.479Z,83.20
2023-04-27T17:42:02.720Z,83.10
2023-04-27T17:44:32.077Z,84.00
2023-04-27T17:47:00.686Z,83.70
2023-04-27T17:49:28.825Z,84.00
2023-04-27T17:51:56.838Z,84.20
2023-04-27T17:54:24.838Z,84.00
2023-04-27T17:56:52.848Z,83.90
2023-04-27T17:59:20.895Z,84.20
2023-04-27T18:01:50.375Z,84.60
2023-04-27T18:04:18.521Z,84.40
2023-04-27T18:06:47.062Z,84.70
2023-04-27T18:09:16.108Z,85.10
2023-04-27T18:11:44.361Z,85.20
2023-04-27T18:14:12.470Z,84.90
2023-04-27T18:16:40.711Z,85.20
2023-04-27T18:19:10.258Z,85.40
2023-04-27T18:21:38.274Z,85.70
2023-04-27T18:24:06.692Z,85.70
2023-04-27T18:26:36.028Z,85.60
2023-04-27T18:29:04.515Z,85.70
2023-04-27T18:31:32.577Z,85.60
2023-04-27T18:34:00.905Z,85.50
2023-04-27T18:36:30.296Z,85.70
2023-04-27T18:38:59.557Z,85.70
2023-04-27T18:41:27.608Z,85.80
2023-04-27T18:43:55.669Z,85.80
2023-04-27T18:46:23.723Z,86.00
2023-04-27T18:48:58.898Z,86.20
2023-04-27T18:51:27.071Z,86.30
2023-04-27T18:53:56.647Z,86.30
2023-04-27T18:56:24.726Z,85.80
2023-04-27T18:58:53.279Z,86.20
2023-04-27T19:01:22.956Z,86.30
2023-04-27T19:03:51.306Z,86.50
2023-04-27T19:06:21.108Z,86.80
2023-04-27T19:08:49.525Z,87.70
2023-04-27T19:11:22.104Z,87.40
2023-04-27T19:13:52.480Z,88.10
2023-04-27T19:16:20.574Z,88.20
2023-04-27T19:18:48.829Z,88.50
2023-04-27T19:21:16.915Z,88.30
2023-04-27T19:23:45.848Z,88.30
2023-04-27T19:26:14.517Z,88.60
2023-04-27T19:28:43.969Z,88.70
2023-04-27T19:31:12.122Z,88.90
2023-04-27T19:33:46.849Z,89.20
2023-04-27T19:36:15.309Z,89.60
2023-04-27T19:38:43.378Z,89.80
2023-04-27T19:41:13.922Z,90.00
2023-04-27T19:43:43.349Z,90.00
2023-04-27T19:46:11.585Z,89.30
2023-04-27T19:48:41.112Z,89.50
2023-04-27T19:51:11.205Z,89.70
2023-04-27T19:53:39.601Z,90.00
2023-04-27T19:56:07.717Z,90.00
2023-04-27T19:58:37.148Z,90.10
2023-04-27T20:01:06.579Z,90.20
2023-04-27T20:03:41.407Z,90.20
2023-04-27T20:06:10.238Z,90.20
2023-04-27T20:08:38.397Z,90.10
2023-04-27T20:11:09.646Z,90.20
2023-04-27T20:13:45.018Z,90.30
2023-04-27T20:16:15.516Z,90.30
2023-04-27T20:18:45.018Z,90.40
2023-04-27T20:21:13.078Z,90.30
2023-04-27T20:23:41.706Z,90.30
2023-04-27T20:26:09.799Z,90.50
2023-04-27T20:28:38.099Z,90.50
2023-04-27T20:31:14.781Z,90.50
2023-04-27T20:33:44.267Z,90.40
2023-04-27T20:36:17.146Z,90.40
2023-04-27T20:38:46.449Z,90.40
2023-04-27T20:41:17.310Z,90.30
2023-04-27T20:43:45.482Z,90.50
2023-04-27T20:46:14.350Z,90.60
2023-04-27T20:48:43.744Z,90.70
2023-04-27T20:51:11.749Z,90.60
2023-04-27T20:53:40.967Z,90.50
2023-04-27T20:56:12.029Z,90.50
2023-04-27T20:58:41.288Z,90.40
2023-04-27T21:01:09.327Z,90.40
2023-04-27T21:03:37.676Z,90.70
2023-04-27T21:06:07.768Z,90.60
2023-04-27T21:08:39.575Z,90.60
2023-04-27T21:11:07.959Z,90.70
2023-04-27T21:13:36.044Z,90.60
2023-04-27T21:16:04.093Z,90.70
2023-04-27T21:18:32.454Z,90.70
2023-04-27T21:21:03.618Z,90.70
2023-04-27T21:23:35.339Z,90.60
2023-04-27T21:26:03.467Z,90.80
2023-04-27T21:28:32.450Z,90.50
2023-04-27T21:31:00.514Z,90.70
2023-04-27T21:33:28.572Z,90.60
2023-04-27T21:35:57.109Z,90.60
2023-04-27T21:38:27.740Z,90.70
2023-04-27T21:41:01.224Z,90.70
2023-04-27T21:43:29.313Z,90.70
2023-04-27T21:45:59.963Z,90.70
2023-04-27T21:48:29.266Z,90.70
2023-04-27T21:50:57.277Z,90.70
2023-04-27T21:53:25.463Z,90.80
2023-04-27T21:55:53.482Z,90.90
2023-04-27T21:58:22.821Z,91.00
2023-04-27T22:00:50.891Z,91.00
2023-04-27T22:03:19.192Z,91.10
2023-04-27T22:05:48.933Z,91.00
2023-04-27T22:08:18.170Z,91.20
2023-04-27T22:10:46.513Z,91.20
2023-04-27T22:13:18.954Z,91.30
2023-04-27T22:15:49.542Z,91.30
2023-04-27T22:18:17.577Z,91.30
2023-04-27T22:20:45.974Z,91.20
2023-04-27T22:23:14.085Z,91.10
2023-04-27T22:25:43.152Z,91.20
2023-04-27T22:28:11.391Z,91.00
2023-04-27T22:30:41.069Z,91.30
2023-04-27T22:33:11.013Z,91.40
2023-04-27T22:35:39.196Z,91.20
2023-04-27T22:38:07.396Z,91.20
2023-04-27T22:40:35.435Z,91.40
2023-04-27T22:43:03.437Z,91.50
2023-04-27T22:45:31.846Z,91.40
2023-04-27T22:47:59.958Z,91.40
2023-04-27T22:50:30.548Z,91.50
2023-04-27T22:52:58.589Z,91.60
2023-04-27T22:55:26.904Z,91.60
2023-04-27T22:57:54.931Z,91.60
2023-04-27T23:00:23.219Z,91.50
2023-04-27T23:02:51.357Z,91.50
2023-04-27T23:05:19.460Z,91.50
2023-04-27T23:07:50.815Z,91.80
2023-04-27T23:10:19.684Z,91.80
2023-04-27T23:12:47.893Z,91.80
2023-04-27T23:15:16.451Z,91.70
2023-04-27T23:17:44.518Z,91.70
2023-04-27T23:20:24.559Z,91.70
2023-04-27T23:22:56.476Z,91.80
2023-04-27T23:25:24.800Z,91.80
2023-04-27T23:27:53.135Z,91.50
2023-04-27T23:30:22.268Z,91.40
2023-04-27T23:32:50.574Z,91.60
2023-04-27T23:35:18.786Z,91.90
2023-04-27T23:37:46.814Z,91.90
2023-04-27T23:40:16.482Z,92.10
2023-04-27T23:42:44.543Z,92.20
2023-04-27T23:45:13.301Z,92.20
2023-04-27T23:47:42.859Z,92.40
2023-04-27T23:50:11.453Z,92.20
2023-04-27T23:52:39.464Z,92.20
2023-04-27T23:55:08.783Z,92.10
2023-04-27T23:57:38.182Z,92.30
